createdAt,value
2019-04-07T00:00:34.627Z,78.20
2019-04-07T00:03:02.465Z,78.30
2019-04-07T00:05:30.226Z,78.50
2019-04-07T00:07:59.057Z,78.00
2019-04-07T00:10:46.870Z,78.50
2019-04-07T00:13:14.779Z,80.20
2019-04-07T00:15:43.258Z,79.50
2019-04-07T00:18:11.050Z,79.90
2019-04-07T00:20:40.236Z,81.00
2019-04-07T00:23:08.013Z,80.00
2019-04-07T00:25:36.331Z,80.20
2019-04-07T00:28:04.413Z,80.80
2019-04-07T00:30:57.380Z,80.40
2019-04-07T00:33:25.631Z,79.80
2019-04-07T00:35:53.576Z,80.50
2019-04-07T00:38:21.334Z,80.80
2019-04-07T00:40:49.316Z,80.70
2019-04-07T00:43:17.168Z,81.40
2019-04-07T00:45:45.039Z,80.70
2019-04-07T00:48:13.202Z,80.60
2019-04-07T00:50:41.014Z,81.30
2019-04-07T00:53:08.899Z,81.70
2019-04-07T00:55:36.747Z,82.20
2019-04-07T00:58:04.559Z,82.80
2019-04-07T01:00:34.606Z,83.30
2019-04-07T01:03:02.951Z,83.10
2019-04-07T01:05:37.886Z,84.60
2019-04-07T01:08:01.708Z,83.50
2019-04-07T01:10:29.694Z,83.60
2019-04-07T01:12:57.616Z,83.30
2019-04-07T01:15:25.413Z,84.80
2019-04-07T01:17:53.336Z,83.80
2019-04-07T01:20:21.609Z,83.90
2019-04-07T01:22:50.141Z,83.20
2019-04-07T01:25:18.188Z,84.00
2019-04-07T01:27:46.586Z,83.30
2019-04-07T01:30:15.063Z,83.80
2019-04-07T01:32:43.391Z,83.50
2019-04-07T01:35:11.337Z,84.00
2019-04-07T01:37:40.647Z,83.50
2019-04-07T01:40:24.434Z,83.50
2019-04-07T01:43:15.333Z,82.40
2019-04-07T01:46:01.134Z,82.70
2019-04-07T01:48:45.816Z,83.80
2019-04-07T01:51:45.516Z,84.20
2019-04-07T01:54:31.852Z,85.20
2019-04-07T01:57:25.634Z,85.20
2019-04-07T02:00:09.487Z,84.60
2019-04-07T02:03:03.383Z,83.90
2019-04-07T02:05:58.613Z,84.10
2019-04-07T02:08:37.471Z,84.70
2019-04-07T02:11:30.859Z,83.80
2019-04-07T02:14:16.854Z,83.60
2019-04-07T02:17:04.363Z,84.20
2019-04-07T02:19:54.937Z,83.80
2019-04-07T02:22:41.055Z,83.50
2019-04-07T02:25:37.378Z,83.30
2019-04-07T02:28:25.442Z,84.00
2019-04-07T02:31:10.090Z,83.40
2019-04-07T02:33:53.129Z,82.80
2019-04-07T02:36:36.489Z,83.90
2019-04-07T02:39:15.292Z,83.30
2019-04-07T02:42:02.865Z,83.10
2019-04-07T02:44:50.822Z,83.50
2019-04-07T02:47:26.170Z,83.60
2019-04-07T02:50:17.806Z,83.40
2019-04-07T02:53:02.965Z,84.00
2019-04-07T02:55:45.193Z,84.60
2019-04-07T02:58:38.539Z,84.10
2019-04-07T03:01:38.303Z,83.80
2019-04-07T03:04:20.538Z,83.60
2019-04-07T03:07:20.179Z,83.30
2019-04-07T03:10:07.585Z,83.80
2019-04-07T03:12:46.692Z,84.20
2019-04-07T03:15:34.530Z,84.60
2019-04-07T03:18:24.238Z,84.50
2019-04-07T03:21:10.046Z,84.50
2019-04-07T03:23:53.893Z,84.50
2019-04-07T03:26:44.523Z,84.50
2019-04-07T03:29:40.284Z,84.50
2019-04-07T03:32:42.902Z,84.50
2019-04-07T03:35:50.191Z,84.40
2019-04-07T03:38:36.807Z,84.90
2019-04-07T03:41:21.783Z,84.40
2019-04-07T03:43:54.987Z,84.40
2019-04-07T03:46:45.669Z,84.20
2019-04-07T03:49:24.055Z,84.20
2019-04-07T03:52:17.151Z,84.20
2019-04-07T03:55:08.613Z,84.20
2019-04-07T03:57:58.805Z,84.10
2019-04-07T04:01:25.720Z,83.80
2019-04-07T04:04:19.557Z,84.20
2019-04-07T04:07:22.878Z,84.00
2019-04-07T04:10:08.447Z,84.00
2019-04-07T04:13:14.362Z,85.00
2019-04-07T04:16:04.736Z,84.80
2019-04-07T04:18:32.514Z,85.20
2019-04-07T04:21:01.392Z,84.90
2019-04-07T04:23:30.222Z,84.70
2019-04-07T04:25:59.012Z,86.10
2019-04-07T04:28:27.406Z,86.00
2019-04-07T04:30:56.550Z,85.40
2019-04-07T04:33:25.446Z,86.20
2019-04-07T04:35:53.852Z,86.60
2019-04-07T04:38:21.868Z,86.00
2019-04-07T04:40:50.534Z,86.40
2019-04-07T04:43:18.421Z,85.80
2019-04-07T04:45:46.232Z,86.40
2019-04-07T04:48:14.041Z,86.00
2019-04-07T04:50:42.119Z,85.10
2019-04-07T04:53:10.762Z,85.30
2019-04-07T04:55:39.235Z,84.90
2019-04-07T04:58:07.297Z,85.10
2019-04-07T05:00:36.276Z,85.00
2019-04-07T05:03:04.621Z,85.40
2019-04-07T05:05:32.804Z,85.20
2019-04-07T05:08:04.095Z,85.10
2019-04-07T05:10:31.266Z,85.70
2019-04-07T05:12:59.042Z,85.10
2019-04-07T05:15:27.519Z,84.70
2019-04-07T05:17:56.067Z,85.20
2019-04-07T05:20:24.033Z,84.10
2019-04-07T05:22:52.261Z,84.20
2019-04-07T05:25:20.685Z,84.00
2019-04-07T05:27:49.120Z,82.20
2019-04-07T05:30:17.660Z,79.80
2019-04-07T05:32:45.605Z,74.10
2019-04-07T05:35:13.415Z,68.30
2019-04-07T05:37:41.789Z,62.30
2019-04-07T05:40:10.130Z,60.80
2019-04-07T05:42:38.148Z,58.10
2019-04-07T05:45:06.729Z,56.20
2019-04-07T05:47:34.526Z,53.80
2019-04-07T05:50:07.649Z,52.40
2019-04-07T05:52:39.161Z,50.80
2019-04-07T05:55:05.981Z,47.80
2019-04-07T05:57:35.855Z,46.40
2019-04-07T06:00:07.137Z,45.10
2019-04-07T06:02:35.305Z,44.40
2019-04-07T06:05:04.151Z,44.70
2019-04-07T06:07:34.943Z,41.10
2019-04-07T06:10:02.383Z,37.80
2019-04-07T06:12:30.363Z,38.00
2019-04-07T06:14:58.510Z,37.50
2019-04-07T06:17:27.519Z,36.70
2019-04-07T06:19:56.864Z,35.10
2019-04-07T06:22:24.814Z,34.90
2019-04-07T06:24:52.589Z,33.80
2019-04-07T06:27:20.396Z,32.70
2019-04-07T06:29:48.884Z,32.00
2019-04-07T06:32:16.764Z,31.10
2019-04-07T06:34:45.877Z,30.30
2019-04-07T06:37:14.524Z,29.50
2019-04-07T06:39:42.397Z,28.70
2019-04-07T06:42:10.220Z,28.10
2019-04-07T06:44:38.540Z,27.40
2019-04-07T06:47:32.001Z,27.60
2019-04-07T06:50:07.459Z,26.80
2019-04-07T06:52:57.727Z,26.70
2019-04-07T06:55:48.649Z,26.30
2019-04-07T06:58:23.320Z,25.70
2019-04-07T07:01:33.938Z,23.30
2019-04-07T07:04:25.530Z,23.60
2019-04-07T07:07:19.935Z,23.60
2019-04-07T07:09:59.840Z,23.40
2019-04-07T07:12:46.067Z,23.30
2019-04-07T07:15:42.879Z,22.20
2019-04-07T07:18:23.696Z,22.00
2019-04-07T07:21:06.854Z,21.90
2019-04-07T07:23:37.516Z,20.90
2019-04-07T07:26:06.036Z,19.90
2019-04-07T07:28:34.761Z,20.10
2019-04-07T07:31:03.198Z,20.30
2019-04-07T07:33:31.445Z,19.70
2019-04-07T07:35:59.368Z,19.20
2019-04-07T07:38:31.094Z,18.90
2019-04-07T07:40:57.024Z,19.30
2019-04-07T07:43:27.928Z,18.50
2019-04-07T07:45:55.556Z,17.70
2019-04-07T07:48:26.411Z,17.60
2019-04-07T07:50:53.750Z,18.30
2019-04-07T07:53:23.664Z,17.00
2019-04-07T07:55:51.295Z,17.00
2019-04-07T07:58:19.396Z,16.20
2019-04-07T08:00:47.603Z,15.80
2019-04-07T08:03:15.610Z,15.30
2019-04-07T08:05:43.404Z,14.80
2019-04-07T08:08:11.941Z,13.80
2019-04-07T08:10:39.770Z,14.60
2019-04-07T08:13:08.697Z,13.60
2019-04-07T08:15:36.741Z,13.10
2019-04-07T08:18:07.309Z,12.80
2019-04-07T08:20:34.978Z,13.00
2019-04-07T08:23:03.664Z,13.10
2019-04-07T08:25:31.964Z,12.90
2019-04-07T08:28:02.177Z,13.20
2019-04-07T08:30:29.653Z,12.70
2019-04-07T08:32:59.519Z,12.70
2019-04-07T08:35:27.543Z,12.20
2019-04-07T08:37:55.668Z,11.90
2019-04-07T08:40:24.196Z,10.80
2019-04-07T08:42:52.188Z,10.40
2019-04-07T08:45:21.577Z,10.50
2019-04-07T08:47:50.791Z,9.60
2019-04-07T08:50:20.906Z,9.90
2019-04-07T08:52:48.891Z,10.10
2019-04-07T08:55:20.089Z,10.80
2019-04-07T08:57:46.915Z,10.10
2019-04-07T09:00:21.421Z,9.80
2019-04-07T09:03:01.099Z,9.90
2019-04-07T09:05:22.434Z,9.40
2019-04-07T09:07:48.614Z,9.40
2019-04-07T09:10:36.146Z,8.80
2019-04-07T09:13:08.399Z,9.00
2019-04-07T09:15:48.557Z,9.80
2019-04-07T09:18:20.535Z,8.60
2019-04-07T09:21:18.674Z,9.30
2019-04-07T09:24:09.402Z,9.50
2019-04-07T09:26:57.846Z,9.50
2019-04-07T09:29:42.196Z,9.50
2019-04-07T09:32:22.699Z,10.00
2019-04-07T09:35:07.303Z,9.60
2019-04-07T09:37:54.083Z,9.80
2019-04-07T09:40:40.775Z,9.10
2019-04-07T09:43:40.408Z,9.70
2019-04-07T09:46:18.007Z,9.70
2019-04-07T09:49:11.589Z,10.10
2019-04-07T09:52:10.270Z,10.00
2019-04-07T09:55:08.281Z,10.50
2019-04-07T09:57:59.087Z,9.90
2019-04-07T10:00:45.532Z,11.00
2019-04-07T10:03:38.150Z,10.60
2019-04-07T10:06:24.230Z,10.70
2019-04-07T10:09:14.536Z,11.40
2019-04-07T10:12:06.385Z,10.90
2019-04-07T10:14:59.758Z,11.90
2019-04-07T10:17:53.426Z,14.20
2019-04-07T10:20:43.346Z,12.90
2019-04-07T10:23:26.692Z,12.40
2019-04-07T10:26:04.009Z,11.90
2019-04-07T10:28:55.395Z,12.10
2019-04-07T10:31:44.220Z,12.10
2019-04-07T10:34:32.123Z,12.10
2019-04-07T10:37:10.133Z,12.50
2019-04-07T10:40:19.508Z,12.10
2019-04-07T10:43:08.471Z,12.60
2019-04-07T10:46:02.425Z,11.00
2019-04-07T10:49:01.555Z,10.60
2019-04-07T10:51:38.009Z,10.00
2019-04-07T10:54:32.623Z,9.70
2019-04-07T10:57:11.106Z,9.10
2019-04-07T11:00:14.645Z,10.00
2019-04-07T11:02:56.896Z,9.30
2019-04-07T11:05:44.776Z,9.70
2019-04-07T11:08:32.055Z,8.70
2019-04-07T11:11:28.076Z,8.90
2019-04-07T11:14:11.735Z,9.90
2019-04-07T11:17:01.116Z,10.40
2019-04-07T11:19:38.187Z,11.00
2019-04-07T11:22:31.730Z,11.70
2019-04-07T11:25:24.935Z,12.50
2019-04-07T11:28:24.360Z,10.70
2019-04-07T11:31:12.027Z,11.20
2019-04-07T11:33:48.422Z,10.80
2019-04-07T11:36:48.586Z,10.50
2019-04-07T11:39:29.132Z,10.50
2019-04-07T11:42:33.325Z,10.00
2019-04-07T11:45:13.829Z,10.00
2019-04-07T11:48:08.383Z,8.50
2019-04-07T11:50:54.950Z,9.10
2019-04-07T11:53:33.126Z,9.00
2019-04-07T11:56:27.043Z,9.20
2019-04-07T11:59:32.962Z,8.30
2019-04-07T12:02:24.265Z,8.70
2019-04-07T12:05:21.249Z,9.50
2019-04-07T12:08:00.681Z,9.30
2019-04-07T12:10:56.200Z,9.80
2019-04-07T12:13:48.716Z,8.80
2019-04-07T12:16:28.636Z,8.70
2019-04-07T12:19:14.532Z,8.60
2019-04-07T12:22:08.707Z,8.50
2019-04-07T12:25:00.754Z,8.60
2019-04-07T12:27:52.798Z,8.40
2019-04-07T12:30:49.178Z,9.80
2019-04-07T12:33:23.317Z,9.10
2019-04-07T12:36:20.538Z,8.60
2019-04-07T12:39:20.209Z,8.70
2019-04-07T12:42:13.622Z,8.50
2019-04-07T12:44:53.834Z,9.40
2019-04-07T12:47:44.990Z,10.50
2019-04-07T12:50:32.741Z,10.10
2019-04-07T12:53:19.709Z,9.10
2019-04-07T12:56:07.277Z,10.40
2019-04-07T12:58:54.055Z,10.20
2019-04-07T13:01:49.537Z,9.30
2019-04-07T13:04:46.313Z,9.50
2019-04-07T13:07:32.571Z,9.40
2019-04-07T13:10:12.030Z,10.70
2019-04-07T13:12:53.657Z,12.20
2019-04-07T13:15:50.955Z,11.90
2019-04-07T13:18:39.144Z,12.90
2019-04-07T13:21:29.797Z,13.30
2019-04-07T13:24:28.313Z,12.20
2019-04-07T13:27:03.116Z,12.30
2019-04-07T13:29:40.060Z,14.90
2019-04-07T13:32:38.045Z,15.50
2019-04-07T13:35:16.696Z,16.50
2019-04-07T13:38:04.440Z,17.40
2019-04-07T13:40:53.097Z,18.30
2019-04-07T13:43:38.196Z,18.50
2019-04-07T13:46:38.948Z,19.30
2019-04-07T13:49:27.727Z,18.70
2019-04-07T13:52:27.953Z,17.90
2019-04-07T13:55:04.654Z,18.80
2019-04-07T13:57:49.362Z,19.20
2019-04-07T14:00:38.093Z,18.70
2019-04-07T14:03:23.330Z,19.60
2019-04-07T14:06:14.302Z,20.60
2019-04-07T14:09:12.266Z,19.10
2019-04-07T14:12:08.280Z,19.70
2019-04-07T14:14:57.961Z,19.50
2019-04-07T14:17:37.380Z,18.20
2019-04-07T14:20:28.213Z,17.30
2019-04-07T14:23:28.637Z,17.30
2019-04-07T14:26:16.807Z,16.00
2019-04-07T14:28:50.191Z,16.20
2019-04-07T14:31:41.268Z,15.20
2019-04-07T14:34:36.427Z,14.70
2019-04-07T14:37:39.057Z,15.00
2019-04-07T14:40:40.981Z,14.90
2019-04-07T14:43:32.484Z,15.60
2019-04-07T14:46:10.077Z,16.50
2019-04-07T14:48:57.548Z,16.40
2019-04-07T14:51:45.110Z,16.20
2019-04-07T14:54:38.456Z,16.90
2019-04-07T14:57:16.986Z,17.20
2019-04-07T14:59:58.962Z,18.40
2019-04-07T15:02:27.938Z,19.20
2019-04-07T15:05:00.031Z,18.10
2019-04-07T15:08:00.120Z,17.90
2019-04-07T15:10:31.902Z,17.90
2019-04-07T15:13:06.486Z,17.20
2019-04-07T15:15:34.359Z,17.50
2019-04-07T15:18:03.609Z,18.70
2019-04-07T15:20:32.304Z,19.00
2019-04-07T15:23:01.609Z,18.40
2019-04-07T15:25:30.011Z,19.20
2019-04-07T15:27:59.830Z,19.00
2019-04-07T15:30:28.031Z,19.00
2019-04-07T15:32:59.513Z,18.90
2019-04-07T15:35:26.431Z,18.70
2019-04-07T15:37:55.005Z,18.70
2019-04-07T15:40:23.478Z,19.50
2019-04-07T15:42:51.326Z,19.30
2019-04-07T15:45:20.496Z,20.30
2019-04-07T15:47:51.336Z,22.20
2019-04-07T15:50:21.578Z,21.90
2019-04-07T15:52:49.824Z,21.90
2019-04-07T15:55:17.803Z,22.60
2019-04-07T15:57:45.550Z,22.70
2019-04-07T16:00:13.609Z,22.80
2019-04-07T16:02:43.138Z,23.30
2019-04-07T16:05:11.711Z,23.30
2019-04-07T16:07:40.516Z,23.80
2019-04-07T16:10:29.108Z,23.40
2019-04-07T16:12:59.286Z,23.90
2019-04-07T16:15:27.258Z,24.60
2019-04-07T16:17:55.608Z,24.70
2019-04-07T16:20:32.461Z,25.10
2019-04-07T16:22:57.579Z,24.80
2019-04-07T16:25:27.688Z,24.40
2019-04-07T16:27:55.099Z,24.50
2019-04-07T16:30:23.443Z,25.80
2019-04-07T16:32:51.278Z,25.70
2019-04-07T16:35:19.122Z,25.70
2019-04-07T16:37:47.921Z,25.70
2019-04-07T16:40:16.259Z,25.60
2019-04-07T16:42:54.533Z,25.60
2019-04-07T16:45:16.707Z,26.00
2019-04-07T16:47:45.535Z,26.30
2019-04-07T16:50:18.084Z,25.80
2019-04-07T16:52:43.252Z,25.90
2019-04-07T16:55:52.733Z,26.10
2019-04-07T16:58:18.631Z,26.10
2019-04-07T17:00:51.763Z,26.60
2019-04-07T17:03:20.442Z,26.80
2019-04-07T17:05:48.637Z,27.30
2019-04-07T17:08:19.354Z,27.30
2019-04-07T17:10:46.569Z,27.20
2019-04-07T17:13:20.598Z,27.60
2019-04-07T17:15:44.825Z,27.50
2019-04-07T17:18:37.337Z,27.40
2019-04-07T17:21:16.748Z,27.30
2019-04-07T17:23:45.633Z,27.50
2019-04-07T17:26:13.822Z,27.80
2019-04-07T17:28:44.619Z,27.90
2019-04-07T17:31:14.606Z,28.00
2019-04-07T17:33:42.836Z,28.20
2019-04-07T17:36:15.449Z,28.70
2019-04-07T17:38:45.794Z,28.70
2019-04-07T17:41:31.454Z,28.80
2019-04-07T17:44:17.657Z,29.10
2019-04-07T17:47:06.205Z,29.00
2019-04-07T17:50:06.068Z,29.40
2019-04-07T17:52:42.415Z,29.50
2019-04-07T17:55:26.064Z,30.50
2019-04-07T17:58:15.999Z,30.00
2019-04-07T18:00:59.650Z,31.10
2019-04-07T18:04:02.663Z,32.00
2019-04-07T18:06:48.455Z,33.60
2019-04-07T18:09:35.881Z,33.80
2019-04-07T18:12:22.527Z,34.50
2019-04-07T18:15:14.767Z,33.10
2019-04-07T18:18:04.158Z,33.70
2019-04-07T18:20:51.896Z,33.60
2019-04-07T18:23:38.208Z,33.70
2019-04-07T18:26:19.681Z,33.60
2019-04-07T18:29:08.186Z,34.20
2019-04-07T18:32:53.557Z,34.10
2019-04-07T18:35:54.083Z,35.00
2019-04-07T18:38:51.499Z,34.80
2019-04-07T18:42:03.528Z,36.70
2019-04-07T18:44:57.617Z,35.60
2019-04-07T18:47:53.906Z,36.20
2019-04-07T18:50:53.375Z,38.10
2019-04-07T18:53:43.874Z,36.00
2019-04-07T18:56:25.893Z,35.80
2019-04-07T18:59:11.756Z,35.80
2019-04-07T19:01:52.245Z,36.20
2019-04-07T19:04:33.227Z,36.50
2019-04-07T19:07:21.389Z,36.80
2019-04-07T19:10:06.296Z,37.90
2019-04-07T19:12:49.550Z,37.20
2019-04-07T19:15:47.817Z,38.80
2019-04-07T19:18:46.575Z,38.50
2019-04-07T19:21:34.367Z,40.00
2019-04-07T19:24:25.371Z,38.80
2019-04-07T19:27:18.074Z,40.40
2019-04-07T19:30:01.720Z,39.80
2019-04-07T19:32:55.587Z,39.70
2019-04-07T19:35:43.369Z,40.10
2019-04-07T19:38:31.903Z,40.80
2019-04-07T19:41:39.373Z,39.60
2019-04-07T19:44:39.323Z,39.00
2019-04-07T19:47:31.276Z,38.70
2019-04-07T19:50:12.829Z,38.80
2019-04-07T19:52:58.346Z,38.60
2019-04-07T19:55:46.523Z,38.40
2019-04-07T19:58:39.311Z,38.30
2019-04-07T20:01:18.820Z,38.10
2019-04-07T20:04:13.138Z,38.80
2019-04-07T20:07:02.227Z,38.00
2019-04-07T20:09:50.453Z,38.00
2019-04-07T20:12:25.524Z,37.70
2019-04-07T20:15:18.684Z,37.80
2019-04-07T20:18:07.392Z,37.70
2019-04-07T20:20:55.978Z,37.80
2019-04-07T20:23:43.654Z,37.30
2019-04-07T20:26:31.142Z,37.30
2019-04-07T20:29:08.066Z,37.20
2019-04-07T20:31:51.626Z,37.30
2019-04-07T20:34:42.821Z,37.10
2019-04-07T20:37:36.523Z,36.80
2019-04-07T20:40:45.518Z,36.90
2019-04-07T20:43:21.961Z,37.10
2019-04-07T20:46:07.661Z,37.30
2019-04-07T20:48:45.678Z,36.90
2019-04-07T20:51:54.304Z,38.60
2019-04-07T20:54:40.529Z,37.10
2019-04-07T20:57:27.390Z,37.20
2019-04-07T21:00:18.661Z,38.10
2019-04-07T21:03:15.095Z,37.70
2019-04-07T21:05:53.470Z,37.50
2019-04-07T21:08:45.542Z,37.70
2019-04-07T21:11:42.896Z,37.60
2019-04-07T21:14:17.441Z,38.90
2019-04-07T21:17:01.588Z,37.40
2019-04-07T21:19:57.506Z,39.90
2019-04-07T21:22:44.293Z,38.70
2019-04-07T21:25:39.186Z,38.00
2019-04-07T21:28:35.957Z,41.10
2019-04-07T21:31:17.839Z,42.80
2019-04-07T21:34:03.338Z,42.80
2019-04-07T21:36:50.492Z,44.30
2019-04-07T21:39:41.767Z,44.10
2019-04-07T21:42:21.020Z,46.30
2019-04-07T21:45:10.442Z,46.80
2019-04-07T21:48:00.182Z,46.60
2019-04-07T21:50:56.595Z,46.60
2019-04-07T21:53:42.079Z,49.00
2019-04-07T21:56:18.021Z,49.10
2019-04-07T21:59:14.326Z,50.20
2019-04-07T22:02:01.026Z,48.80
2019-04-07T22:04:39.791Z,48.30
2019-04-07T22:07:19.536Z,48.90
2019-04-07T22:09:52.123Z,48.60
2019-04-07T22:12:20.397Z,48.90
2019-04-07T22:14:48.139Z,48.30
2019-04-07T22:17:15.966Z,47.90
2019-04-07T22:19:46.275Z,48.40
2019-04-07T22:22:14.282Z,48.10
2019-04-07T22:24:42.311Z,48.50
2019-04-07T22:27:11.194Z,49.00
2019-04-07T22:29:39.108Z,48.70
2019-04-07T22:32:07.483Z,49.00
2019-04-07T22:34:35.695Z,49.20
2019-04-07T22:37:03.636Z,51.00
2019-04-07T22:39:32.132Z,51.70
2019-04-07T22:42:00.188Z,52.20
2019-04-07T22:44:28.090Z,53.10
2019-04-07T22:46:56.501Z,51.20
2019-04-07T22:49:28.446Z,52.00
2019-04-07T22:51:56.238Z,51.10
2019-04-07T22:54:27.391Z,51.20
2019-04-07T22:56:54.301Z,51.20
2019-04-07T22:59:22.551Z,51.20
2019-04-07T23:02:20.934Z,51.20
2019-04-07T23:04:48.703Z,51.10
2019-04-07T23:07:16.493Z,51.10
2019-04-07T23:09:44.314Z,51.10
2019-04-07T23:12:12.639Z,52.30
2019-04-07T23:14:40.500Z,51.20
2019-04-07T23:17:08.288Z,52.60
2019-04-07T23:19:36.075Z,52.40
2019-04-07T23:22:04.166Z,53.00
2019-04-07T23:24:31.941Z,53.50
2019-04-07T23:26:59.903Z,53.90
2019-04-07T23:29:28.309Z,53.50
2019-04-07T23:31:56.452Z,54.10
2019-04-07T23:34:24.198Z,54.10
2019-04-07T23:36:52.115Z,54.10
2019-04-07T23:39:20.044Z,54.00
2019-04-07T23:41:47.866Z,53.80
2019-04-07T23:44:16.089Z,54.10
2019-04-07T23:46:43.915Z,54.00
2019-04-07T23:49:11.979Z,54.60
2019-04-07T23:51:40.019Z,54.30
2019-04-07T23:54:12.515Z,55.10
2019-04-07T23:56:41.769Z,54.30
2019-04-07T23:59:10.487Z,54.40
